sensor_id;sensor_type;location;lat;lon;timestamp;P1;durP1;ratioP1;P2;durP2;ratioP2
5553;SDS011;2800;49.528;8.666;2023-07-31T00:01:18;9.40;;;2.77;;
5553;SDS011;2800;49.528;8.666;2023-07-31T00:03:45;7.47;;;2.60;;
5553;SDS011;2800;49.528;8.666;2023-07-31T00:06:11;9.90;;;2.93;;
5553;SDS011;2800;49.528;8.666;2023-07-31T00:08:36;7.57;;;2.53;;
5553;SDS011;2800;49.528;8.666;2023-07-31T00:11:01;12.80;;;3.10;;
5553;SDS011;2800;49.528;8.666;2023-07-31T00:13:27;5.90;;;2.27;;
5553;SDS011;2800;49.528;8.666;2023-07-31T00:15:53;11.13;;;2.83;;
5553;SDS011;2800;49.528;8.666;2023-07-31T00:18:18;7.43;;;2.50;;
5553;SDS011;2800;49.528;8.666;2023-07-31T00:20:44;8.70;;;2.90;;
5553;SDS011;2800;49.528;8.666;2023-07-31T00:23:09;5.93;;;2.50;;
5553;SDS011;2800;49.528;8.666;2023-07-31T00:25:35;8.47;;;2.80;;
5553;SDS011;2800;49.528;8.666;2023-07-31T00:28:00;9.73;;;2.60;;
5553;SDS011;2800;49.528;8.666;2023-07-31T00:30:26;7.07;;;2.23;;
5553;SDS011;2800;49.528;8.666;2023-07-31T00:32:52;7.97;;;2.50;;
5553;SDS011;2800;49.528;8.666;2023-07-31T00:35:17;7.27;;;2.80;;
5553;SDS011;2800;49.528;8.666;2023-07-31T00:37:43;10.43;;;2.90;;
5553;SDS011;2800;49.528;8.666;2023-07-31T00:40:08;7.77;;;2.63;;
5553;SDS011;2800;49.528;8.666;2023-07-31T00:42:34;6.13;;;2.30;;
5553;SDS011;2800;49.528;8.666;2023-07-31T00:44:59;8.27;;;2.50;;
5553;SDS011;2800;49.528;8.666;2023-07-31T00:47:25;6.63;;;2.50;;
5553;SDS011;2800;49.528;8.666;2023-07-31T00:49:51;9.87;;;3.27;;
5553;SDS011;2800;49.528;8.666;2023-07-31T00:52:17;14.43;;;3.20;;
5553;SDS011;2800;49.528;8.666;2023-07-31T00:54:44;7.37;;;2.60;;
5553;SDS011;2800;49.528;8.666;2023-07-31T00:57:09;6.00;;;2.73;;
5553;SDS011;2800;49.528;8.666;2023-07-31T00:59:35;6.03;;;2.70;;
5553;SDS011;2800;49.528;8.666;2023-07-31T01:02:01;7.10;;;2.60;;
5553;SDS011;2800;49.528;8.666;2023-07-31T01:04:26;7.10;;;2.50;;
5553;SDS011;2800;49.528;8.666;2023-07-31T01:06:56;7.43;;;2.53;;
5553;SDS011;2800;49.528;8.666;2023-07-31T01:12:02;10.80;;;2.80;;
5553;SDS011;2800;49.528;8.666;2023-07-31T01:14:29;7.67;;;3.00;;
5553;SDS011;2800;49.528;8.666;2023-07-31T01:16:55;7.57;;;2.80;;
5553;SDS011;2800;49.528;8.666;2023-07-31T01:19:24;7.80;;;2.70;;
5553;SDS011;2800;49.528;8.666;2023-07-31T01:27:34;7.60;;;2.70;;
5553;SDS011;2800;49.528;8.666;2023-07-31T01:30:08;8.47;;;2.77;;
5553;SDS011;2800;49.528;8.666;2023-07-31T01:32:47;8.23;;;2.90;;
5553;SDS011;2800;49.528;8.666;2023-07-31T01:35:14;7.63;;;2.73;;
5553;SDS011;2800;49.528;8.666;2023-07-31T01:37:40;10.40;;;2.70;;
5553;SDS011;2800;49.528;8.666;2023-07-31T01:40:06;9.20;;;2.63;;
5553;SDS011;2800;49.528;8.666;2023-07-31T01:42:32;7.77;;;3.30;;
5553;SDS011;2800;49.528;8.666;2023-07-31T01:44:58;7.50;;;2.53;;
5553;SDS011;2800;49.528;8.666;2023-07-31T01:47:23;7.93;;;2.90;;
5553;SDS011;2800;49.528;8.666;2023-07-31T01:49:49;8.60;;;3.07;;
5553;SDS011;2800;49.528;8.666;2023-07-31T01:52:14;10.13;;;2.60;;
5553;SDS011;2800;49.528;8.666;2023-07-31T01:54:40;5.93;;;2.40;;
5553;SDS011;2800;49.528;8.666;2023-07-31T01:57:05;7.90;;;2.53;;
5553;SDS011;2800;49.528;8.666;2023-07-31T01:59:31;6.47;;;2.33;;
5553;SDS011;2800;49.528;8.666;2023-07-31T02:01:57;8.93;;;2.80;;
5553;SDS011;2800;49.528;8.666;2023-07-31T02:04:22;8.80;;;2.93;;
5553;SDS011;2800;49.528;8.666;2023-07-31T02:06:48;8.23;;;2.67;;
5553;SDS011;2800;49.528;8.666;2023-07-31T02:09:13;8.03;;;2.80;;
5553;SDS011;2800;49.528;8.666;2023-07-31T02:11:39;8.63;;;3.07;;
5553;SDS011;2800;49.528;8.666;2023-07-31T02:14:04;10.00;;;2.93;;
5553;SDS011;2800;49.528;8.666;2023-07-31T02:16:30;8.40;;;3.13;;
5553;SDS011;2800;49.528;8.666;2023-07-31T02:18:55;9.50;;;3.13;;
5553;SDS011;2800;49.528;8.666;2023-07-31T02:21:21;10.90;;;3.07;;
5553;SDS011;2800;49.528;8.666;2023-07-31T02:23:46;7.90;;;3.20;;
5553;SDS011;2800;49.528;8.666;2023-07-31T02:26:12;10.23;;;3.33;;
5553;SDS011;2800;49.528;8.666;2023-07-31T02:28:37;9.03;;;3.07;;
5553;SDS011;2800;49.528;8.666;2023-07-31T02:31:03;8.00;;;3.03;;
5553;SDS011;2800;49.528;8.666;2023-07-31T02:33:28;7.37;;;2.53;;
5553;SDS011;2800;49.528;8.666;2023-07-31T02:35:54;7.00;;;2.47;;
5553;SDS011;2800;49.528;8.666;2023-07-31T02:38:19;6.70;;;2.50;;
5553;SDS011;2800;49.528;8.666;2023-07-31T02:40:45;7.90;;;2.80;;
5553;SDS011;2800;49.528;8.666;2023-07-31T02:43:10;14.37;;;3.37;;
5553;SDS011;2800;49.528;8.666;2023-07-31T02:45:36;8.17;;;3.17;;
5553;SDS011;2800;49.528;8.666;2023-07-31T02:48:01;10.20;;;2.63;;
5553;SDS011;2800;49.528;8.666;2023-07-31T02:50:27;7.00;;;2.60;;
5553;SDS011;2800;49.528;8.666;2023-07-31T02:52:55;7.30;;;2.67;;
5553;SDS011;2800;49.528;8.666;2023-07-31T02:55:20;12.63;;;3.00;;
5553;SDS011;2800;49.528;8.666;2023-07-31T02:57:46;8.47;;;2.90;;
5553;SDS011;2800;49.528;8.666;2023-07-31T03:00:12;7.63;;;2.53;;
5553;SDS011;2800;49.528;8.666;2023-07-31T03:02:38;8.77;;;3.10;;
5553;SDS011;2800;49.528;8.666;2023-07-31T03:05:03;8.83;;;3.10;;
5553;SDS011;2800;49.528;8.666;2023-07-31T03:07:29;7.43;;;2.90;;
5553;SDS011;2800;49.528;8.666;2023-07-31T03:09:55;8.03;;;2.97;;
5553;SDS011;2800;49.528;8.666;2023-07-31T03:12:21;10.43;;;2.90;;
5553;SDS011;2800;49.528;8.666;2023-07-31T03:14:47;9.20;;;3.03;;
5553;SDS011;2800;49.528;8.666;2023-07-31T03:17:12;11.20;;;3.10;;
5553;SDS011;2800;49.528;8.666;2023-07-31T03:19:38;13.73;;;3.23;;
5553;SDS011;2800;49.528;8.666;2023-07-31T03:22:03;9.30;;;3.07;;
5553;SDS011;2800;49.528;8.666;2023-07-31T03:24:29;7.30;;;3.20;;
5553;SDS011;2800;49.528;8.666;2023-07-31T03:26:55;7.50;;;2.80;;
5553;SDS011;2800;49.528;8.666;2023-07-31T03:29:20;9.47;;;2.90;;
5553;SDS011;2800;49.528;8.666;2023-07-31T03:31:46;8.33;;;2.87;;
5553;SDS011;2800;49.528;8.666;2023-07-31T03:34:11;8.37;;;3.00;;
5553;SDS011;2800;49.528;8.666;2023-07-31T03:36:37;7.10;;;2.80;;
5553;SDS011;2800;49.528;8.666;2023-07-31T03:39:02;11.40;;;2.83;;
5553;SDS011;2800;49.528;8.666;2023-07-31T03:41:28;10.07;;;3.03;;
5553;SDS011;2800;49.528;8.666;2023-07-31T03:43:53;6.73;;;2.73;;
5553;SDS011;2800;49.528;8.666;2023-07-31T03:46:21;6.70;;;2.90;;
5553;SDS011;2800;49.528;8.666;2023-07-31T03:48:47;11.23;;;3.20;;
5553;SDS011;2800;49.528;8.666;2023-07-31T03:51:13;9.20;;;2.90;;
5553;SDS011;2800;49.528;8.666;2023-07-31T03:53:39;7.10;;;3.00;;
5553;SDS011;2800;49.528;8.666;2023-07-31T03:56:04;11.27;;;3.20;;
5553;SDS011;2800;49.528;8.666;2023-07-31T03:58:30;8.77;;;2.93;;
5553;SDS011;2800;49.528;8.666;2023-07-31T04:00:55;6.40;;;3.00;;
5553;SDS011;2800;49.528;8.666;2023-07-31T04:03:21;6.60;;;2.80;;
5553;SDS011;2800;49.528;8.666;2023-07-31T04:05:46;7.87;;;3.27;;
5553;SDS011;2800;49.528;8.666;2023-07-31T04:08:12;7.83;;;3.30;;
5553;SDS011;2800;49.528;8.666;2023-07-31T04:10:37;7.10;;;2.60;;
5553;SDS011;2800;49.528;8.666;2023-07-31T04:13:03;6.90;;;3.00;;
5553;SDS011;2800;49.528;8.666;2023-07-31T04:15:28;7.93;;;3.03;;
5553;SDS011;2800;49.528;8.666;2023-07-31T04:17:54;7.93;;;3.30;;
5553;SDS011;2800;49.528;8.666;2023-07-31T04:20:19;6.60;;;3.23;;
5553;SDS011;2800;49.528;8.666;2023-07-31T04:22:45;8.07;;;3.00;;
5553;SDS011;2800;49.528;8.666;2023-07-31T04:25:10;7.50;;;2.90;;
5553;SDS011;2800;49.528;8.666;2023-07-31T04:27:36;9.03;;;3.07;;
5553;SDS011;2800;49.528;8.666;2023-07-31T04:30:01;6.90;;;3.00;;
5553;SDS011;2800;49.528;8.666;2023-07-31T04:32:28;9.10;;;3.77;;
5553;SDS011;2800;49.528;8.666;2023-07-31T04:34:54;8.00;;;2.83;;
5553;SDS011;2800;49.528;8.666;2023-07-31T04:37:20;11.03;;;2.90;;
5553;SDS011;2800;49.528;8.666;2023-07-31T04:39:45;7.00;;;3.03;;
5553;SDS011;2800;49.528;8.666;2023-07-31T04:42:11;9.00;;;3.43;;
5553;SDS011;2800;49.528;8.666;2023-07-31T04:44:36;10.37;;;3.60;;
5553;SDS011;2800;49.528;8.666;2023-07-31T04:47:02;8.60;;;3.33;;
5553;SDS011;2800;49.528;8.666;2023-07-31T04:49:28;8.70;;;3.33;;
5553;SDS011;2800;49.528;8.666;2023-07-31T04:51:54;7.53;;;2.83;;
5553;SDS011;2800;49.528;8.666;2023-07-31T04:54:19;9.27;;;3.37;;
5553;SDS011;2800;49.528;8.666;2023-07-31T04:56:45;13.23;;;3.37;;
5553;SDS011;2800;49.528;8.666;2023-07-31T04:59:10;7.33;;;3.03;;
5553;SDS011;2800;49.528;8.666;2023-07-31T05:01:36;9.53;;;3.50;;
5553;SDS011;2800;49.528;8.666;2023-07-31T05:04:01;10.20;;;3.43;;
5553;SDS011;2800;49.528;8.666;2023-07-31T05:06:27;11.07;;;3.30;;
5553;SDS011;2800;49.528;8.666;2023-07-31T05:08:52;9.23;;;3.10;;
5553;SDS011;2800;49.528;8.666;2023-07-31T05:11:18;12.40;;;3.87;;
5553;SDS011;2800;49.528;8.666;2023-07-31T05:13:43;7.83;;;3.10;;
5553;SDS011;2800;49.528;8.666;2023-07-31T05:16:09;8.13;;;3.30;;
5553;SDS011;2800;49.528;8.666;2023-07-31T05:18:34;7.93;;;3.40;;
5553;SDS011;2800;49.528;8.666;2023-07-31T05:21:00;9.20;;;3.20;;
5553;SDS011;2800;49.528;8.666;2023-07-31T05:23:25;11.17;;;3.30;;
5553;SDS011;2800;49.528;8.666;2023-07-31T05:25:51;8.27;;;3.40;;
5553;SDS011;2800;49.528;8.666;2023-07-31T05:28:16;7.93;;;3.33;;
5553;SDS011;2800;49.528;8.666;2023-07-31T05:30:42;7.97;;;3.40;;
5553;SDS011;2800;49.528;8.666;2023-07-31T05:33:08;8.37;;;3.30;;
5553;SDS011;2800;49.528;8.666;2023-07-31T05:35:33;10.40;;;3.57;;
5553;SDS011;2800;49.528;8.666;2023-07-31T05:37:59;8.87;;;3.47;;
5553;SDS011;2800;49.528;8.666;2023-07-31T05:40:24;11.53;;;3.80;;
5553;SDS011;2800;49.528;8.666;2023-07-31T05:42:49;9.33;;;3.23;;
5553;SDS011;2800;49.528;8.666;2023-07-31T05:45:15;8.03;;;3.63;;
5553;SDS011;2800;49.528;8.666;2023-07-31T05:47:41;12.80;;;3.57;;
5553;SDS011;2800;49.528;8.666;2023-07-31T05:50:07;8.57;;;3.07;;
5553;SDS011;2800;49.528;8.666;2023-07-31T05:52:33;8.27;;;3.40;;
5553;SDS011;2800;49.528;8.666;2023-07-31T05:54:58;8.47;;;3.37;;
5553;SDS011;2800;49.528;8.666;2023-07-31T05:57:24;8.77;;;3.30;;
5553;SDS011;2800;49.528;8.666;2023-07-31T05:59:49;6.90;;;3.30;;
5553;SDS011;2800;49.528;8.666;2023-07-31T06:02:15;7.97;;;3.20;;
5553;SDS011;2800;49.528;8.666;2023-07-31T06:04:41;10.90;;;3.60;;
5553;SDS011;2800;49.528;8.666;2023-07-31T06:07:06;12.07;;;3.37;;
5553;SDS011;2800;49.528;8.666;2023-07-31T06:09:32;9.00;;;3.60;;
5553;SDS011;2800;49.528;8.666;2023-07-31T06:11:57;11.17;;;3.57;;
5553;SDS011;2800;49.528;8.666;2023-07-31T06:14:23;10.37;;;3.30;;
5553;SDS011;2800;49.528;8.666;2023-07-31T06:16:49;9.63;;;3.37;;
5553;SDS011;2800;49.528;8.666;2023-07-31T06:19:14;11.40;;;3.90;;
5553;SDS011;2800;49.528;8.666;2023-07-31T06:21:40;13.80;;;3.53;;
5553;SDS011;2800;49.528;8.666;2023-07-31T06:24:08;9.50;;;3.63;;
5553;SDS011;2800;49.528;8.666;2023-07-31T06:26:33;8.43;;;3.63;;
5553;SDS011;2800;49.528;8.666;2023-07-31T06:28:59;8.90;;;3.30;;
5553;SDS011;2800;49.528;8.666;2023-07-31T06:31:24;8.73;;;3.40;;
5553;SDS011;2800;49.528;8.666;2023-07-31T06:33:50;7.90;;;3.40;;
5553;SDS011;2800;49.528;8.666;2023-07-31T06:36:16;9.40;;;3.27;;
5553;SDS011;2800;49.528;8.666;2023-07-31T06:38:42;7.10;;;3.37;;
5553;SDS011;2800;49.528;8.666;2023-07-31T06:41:07;8.03;;;3.40;;
5553;SDS011;2800;49.528;8.666;2023-07-31T06:43:34;8.07;;;3.40;;
5553;SDS011;2800;49.528;8.666;2023-07-31T06:46:04;8.90;;;3.30;;
5553;SDS011;2800;49.528;8.666;2023-07-31T06:48:33;8.90;;;3.23;;
5553;SDS011;2800;49.528;8.666;2023-07-31T06:51:00;8.10;;;3.60;;
5553;SDS011;2800;49.528;8.666;2023-07-31T06:53:25;8.17;;;3.20;;
5553;SDS011;2800;49.528;8.666;2023-07-31T06:55:51;7.50;;;3.20;;
5553;SDS011;2800;49.528;8.666;2023-07-31T06:58:17;9.90;;;3.33;;
5553;SDS011;2800;49.528;8.666;2023-07-31T07:00:42;9.30;;;3.90;;
5553;SDS011;2800;49.528;8.666;2023-07-31T07:03:08;9.53;;;3.30;;
5553;SDS011;2800;49.528;8.666;2023-07-31T07:05:33;12.10;;;3.57;;
5553;SDS011;2800;49.528;8.666;2023-07-31T07:07:59;7.43;;;2.90;;
5553;SDS011;2800;49.528;8.666;2023-07-31T07:10:25;7.20;;;3.00;;
5553;SDS011;2800;49.528;8.666;2023-07-31T07:12:50;10.20;;;3.53;;
5553;SDS011;2800;49.528;8.666;2023-07-31T07:15:16;12.33;;;3.40;;
5553;SDS011;2800;49.528;8.666;2023-07-31T07:17:41;10.83;;;3.50;;
5553;SDS011;2800;49.528;8.666;2023-07-31T07:20:07;10.33;;;3.37;;
5553;SDS011;2800;49.528;8.666;2023-07-31T07:22:33;8.70;;;3.20;;
5553;SDS011;2800;49.528;8.666;2023-07-31T07:24:59;7.80;;;3.20;;
5553;SDS011;2800;49.528;8.666;2023-07-31T07:27:24;8.87;;;3.60;;
5553;SDS011;2800;49.528;8.666;2023-07-31T07:29:50;13.47;;;3.87;;
5553;SDS011;2800;49.528;8.666;2023-07-31T07:32:17;8.80;;;3.10;;
5553;SDS011;2800;49.528;8.666;2023-07-31T07:34:43;7.97;;;3.37;;
5553;SDS011;2800;49.528;8.666;2023-07-31T07:37:09;11.83;;;3.10;;
5553;SDS011;2800;49.528;8.666;2023-07-31T07:39:34;7.60;;;2.90;;
5553;SDS011;2800;49.528;8.666;2023-07-31T07:41:59;8.67;;;3.00;;
5553;SDS011;2800;49.528;8.666;2023-07-31T07:44:25;9.03;;;3.40;;
5553;SDS011;2800;49.528;8.666;2023-07-31T07:46:51;11.47;;;3.60;;
5553;SDS011;2800;49.528;8.666;2023-07-31T07:49:17;7.17;;;2.90;;
5553;SDS011;2800;49.528;8.666;2023-07-31T07:51:42;9.53;;;3.17;;
5553;SDS011;2800;49.528;8.666;2023-07-31T07:54:08;10.50;;;3.67;;
5553;SDS011;2800;49.528;8.666;2023-07-31T07:56:34;6.87;;;3.27;;
5553;SDS011;2800;49.528;8.666;2023-07-31T07:59:01;11.40;;;3.43;;
5553;SDS011;2800;49.528;8.666;2023-07-31T08:01:26;10.43;;;3.67;;
5553;SDS011;2800;49.528;8.666;2023-07-31T08:03:52;8.10;;;3.23;;
5553;SDS011;2800;49.528;8.666;2023-07-31T08:06:18;13.13;;;3.53;;
5553;SDS011;2800;49.528;8.666;2023-07-31T08:08:43;8.07;;;3.40;;
5553;SDS011;2800;49.528;8.666;2023-07-31T08:11:09;9.60;;;3.47;;
5553;SDS011;2800;49.528;8.666;2023-07-31T08:13:34;10.63;;;3.77;;
5553;SDS011;2800;49.528;8.666;2023-07-31T08:16:01;7.80;;;3.23;;
5553;SDS011;2800;49.528;8.666;2023-07-31T08:18:28;8.20;;;3.43;;
5553;SDS011;2800;49.528;8.666;2023-07-31T08:20:53;8.20;;;3.73;;
5553;SDS011;2800;49.528;8.666;2023-07-31T08:23:18;9.13;;;3.30;;
5553;SDS011;2800;49.528;8.666;2023-07-31T08:25:44;8.03;;;3.70;;
5553;SDS011;2800;49.528;8.666;2023-07-31T08:28:10;7.83;;;3.40;;
5553;SDS011;2800;49.528;8.666;2023-07-31T08:30:36;11.63;;;3.40;;
5553;SDS011;2800;49.528;8.666;2023-07-31T08:33:01;7.27;;;3.10;;
5553;SDS011;2800;49.528;8.666;2023-07-31T08:35:27;7.97;;;3.37;;
5553;SDS011;2800;49.528;8.666;2023-07-31T08:37:53;9.27;;;4.00;;
5553;SDS011;2800;49.528;8.666;2023-07-31T08:40:19;9.33;;;2.90;;
5553;SDS011;2800;49.528;8.666;2023-07-31T08:42:46;9.20;;;3.70;;
5553;SDS011;2800;49.528;8.666;2023-07-31T08:45:16;10.10;;;2.90;;
5553;SDS011;2800;49.528;8.666;2023-07-31T08:47:47;7.60;;;3.23;;
5553;SDS011;2800;49.528;8.666;2023-07-31T08:50:14;8.80;;;3.50;;
5553;SDS011;2800;49.528;8.666;2023-07-31T08:52:41;10.87;;;3.70;;
5553;SDS011;2800;49.528;8.666;2023-07-31T08:55:07;7.40;;;3.20;;
5553;SDS011;2800;49.528;8.666;2023-07-31T08:57:36;10.57;;;3.60;;
5553;SDS011;2800;49.528;8.666;2023-07-31T09:00:04;7.63;;;3.33;;
5553;SDS011;2800;49.528;8.666;2023-07-31T09:02:33;9.63;;;3.30;;
5553;SDS011;2800;49.528;8.666;2023-07-31T09:05:04;9.60;;;3.80;;
5553;SDS011;2800;49.528;8.666;2023-07-31T09:07:32;10.47;;;3.17;;
5553;SDS011;2800;49.528;8.666;2023-07-31T09:09:59;6.90;;;3.10;;
5553;SDS011;2800;49.528;8.666;2023-07-31T09:12:25;9.67;;;4.40;;
5553;SDS011;2800;49.528;8.666;2023-07-31T09:14:51;8.40;;;3.37;;
5553;SDS011;2800;49.528;8.666;2023-07-31T09:17:16;12.17;;;4.00;;
5553;SDS011;2800;49.528;8.666;2023-07-31T09:19:55;6.80;;;3.23;;
5553;SDS011;2800;49.528;8.666;2023-07-31T09:22:33;14.07;;;2.90;;
5553;SDS011;2800;49.528;8.666;2023-07-31T09:25:18;8.13;;;3.83;;
5553;SDS011;2800;49.528;8.666;2023-07-31T09:27:48;6.63;;;2.90;;
5553;SDS011;2800;49.528;8.666;2023-07-31T09:30:16;13.83;;;3.53;;
5553;SDS011;2800;49.528;8.666;2023-07-31T09:32:43;8.17;;;3.00;;
5553;SDS011;2800;49.528;8.666;2023-07-31T09:35:51;8.83;;;3.33;;
5553;SDS011;2800;49.528;8.666;2023-07-31T09:38:14;11.83;;;3.80;;
5553;SDS011;2800;49.528;8.666;2023-07-31T09:40:44;8.80;;;3.03;;
5553;SDS011;2800;49.528;8.666;2023-07-31T09:43:22;6.30;;;3.23;;
5553;SDS011;2800;49.528;8.666;2023-07-31T09:45:52;8.70;;;3.47;;
5553;SDS011;2800;49.528;8.666;2023-07-31T09:48:20;7.23;;;3.30;;
5553;SDS011;2800;49.528;8.666;2023-07-31T09:50:46;7.33;;;3.73;;
5553;SDS011;2800;49.528;8.666;2023-07-31T09:53:13;6.53;;;3.10;;
5553;SDS011;2800;49.528;8.666;2023-07-31T09:55:39;10.00;;;3.60;;
5553;SDS011;2800;49.528;8.666;2023-07-31T09:58:07;10.80;;;3.90;;
5553;SDS011;2800;49.528;8.666;2023-07-31T10:00:34;8.93;;;3.80;;
5553;SDS011;2800;49.528;8.666;2023-07-31T10:03:00;8.83;;;3.93;;
5553;SDS011;2800;49.528;8.666;2023-07-31T10:05:39;9.17;;;3.37;;
5553;SDS011;2800;49.528;8.666;2023-07-31T10:08:07;10.13;;;4.07;;
5553;SDS011;2800;49.528;8.666;2023-07-31T10:10:38;12.03;;;4.10;;
5553;SDS011;2800;49.528;8.666;2023-07-31T10:13:07;8.30;;;3.70;;
5553;SDS011;2800;49.528;8.666;2023-07-31T10:15:33;9.37;;;3.77;;
5553;SDS011;2800;49.528;8.666;2023-07-31T10:18:00;11.50;;;4.37;;
5553;SDS011;2800;49.528;8.666;2023-07-31T10:20:27;11.90;;;4.23;;
5553;SDS011;2800;49.528;8.666;2023-07-31T10:22:57;12.70;;;3.90;;
5553;SDS011;2800;49.528;8.666;2023-07-31T10:25:24;10.20;;;4.10;;
5553;SDS011;2800;49.528;8.666;2023-07-31T10:27:52;11.07;;;4.03;;
5553;SDS011;2800;49.528;8.666;2023-07-31T10:30:20;10.30;;;4.17;;
5553;SDS011;2800;49.528;8.666;2023-07-31T10:32:49;8.00;;;3.43;;
5553;SDS011;2800;49.528;8.666;2023-07-31T10:35:18;11.37;;;3.70;;
5553;SDS011;2800;49.528;8.666;2023-07-31T10:37:43;9.37;;;3.83;;
5553;SDS011;2800;49.528;8.666;2023-07-31T10:40:10;14.63;;;4.30;;
5553;SDS011;2800;49.528;8.666;2023-07-31T10:42:50;8.20;;;3.93;;
5553;SDS011;2800;49.528;8.666;2023-07-31T10:45:33;8.80;;;3.90;;
5553;SDS011;2800;49.528;8.666;2023-07-31T10:48:05;11.93;;;4.40;;
5553;SDS011;2800;49.528;8.666;2023-07-31T10:50:32;10.90;;;4.10;;
5553;SDS011;2800;49.528;8.666;2023-07-31T10:53:02;15.20;;;4.03;;
5553;SDS011;2800;49.528;8.666;2023-07-31T10:55:29;7.10;;;3.73;;
5553;SDS011;2800;49.528;8.666;2023-07-31T10:57:58;8.70;;;4.23;;
5553;SDS011;2800;49.528;8.666;2023-07-31T11:00:33;9.87;;;3.83;;
5553;SDS011;2800;49.528;8.666;2023-07-31T11:03:06;12.13;;;3.80;;
5553;SDS011;2800;49.528;8.666;2023-07-31T11:05:45;10.10;;;4.40;;
5553;SDS011;2800;49.528;8.666;2023-07-31T11:08:43;10.50;;;4.30;;
5553;SDS011;2800;49.528;8.666;2023-07-31T11:11:14;9.63;;;4.43;;
5553;SDS011;2800;49.528;8.666;2023-07-31T11:16:20;15.00;;;3.80;;
5553;SDS011;2800;49.528;8.666;2023-07-31T11:18:47;9.43;;;4.03;;
5553;SDS011;2800;49.528;8.666;2023-07-31T11:21:17;7.33;;;3.50;;
5553;SDS011;2800;49.528;8.666;2023-07-31T11:23:47;10.40;;;3.87;;
5553;SDS011;2800;49.528;8.666;2023-07-31T11:26:21;10.63;;;3.97;;
5553;SDS011;2800;49.528;8.666;2023-07-31T11:28:49;10.50;;;3.57;;
5553;SDS011;2800;49.528;8.666;2023-07-31T11:31:16;8.53;;;3.93;;
5553;SDS011;2800;49.528;8.666;2023-07-31T11:33:42;11.70;;;3.83;;
5553;SDS011;2800;49.528;8.666;2023-07-31T11:36:14;12.13;;;3.90;;
5553;SDS011;2800;49.528;8.666;2023-07-31T11:38:40;10.10;;;3.97;;
5553;SDS011;2800;49.528;8.666;2023-07-31T11:41:06;8.77;;;3.77;;
5553;SDS011;2800;49.528;8.666;2023-07-31T11:43:32;8.40;;;3.90;;
5553;SDS011;2800;49.528;8.666;2023-07-31T11:45:58;7.77;;;3.80;;
5553;SDS011;2800;49.528;8.666;2023-07-31T11:48:29;10.70;;;3.93;;
5553;SDS011;2800;49.528;8.666;2023-07-31T11:50:58;9.53;;;3.83;;
5553;SDS011;2800;49.528;8.666;2023-07-31T11:53:27;10.70;;;4.23;;
5553;SDS011;2800;49.528;8.666;2023-07-31T11:56:01;9.60;;;4.13;;
5553;SDS011;2800;49.528;8.666;2023-07-31T11:58:29;9.53;;;3.80;;
5553;SDS011;2800;49.528;8.666;2023-07-31T12:00:56;8.93;;;4.20;;
5553;SDS011;2800;49.528;8.666;2023-07-31T12:03:23;12.70;;;3.60;;
5553;SDS011;2800;49.528;8.666;2023-07-31T12:05:49;9.43;;;3.77;;
5553;SDS011;2800;49.528;8.666;2023-07-31T12:08:14;7.13;;;3.90;;
5553;SDS011;2800;49.528;8.666;2023-07-31T12:10:41;13.37;;;4.20;;
5553;SDS011;2800;49.528;8.666;2023-07-31T12:13:10;10.77;;;4.40;;
5553;SDS011;2800;49.528;8.666;2023-07-31T12:15:44;9.27;;;3.93;;
5553;SDS011;2800;49.528;8.666;2023-07-31T12:18:11;8.80;;;3.80;;
5553;SDS011;2800;49.528;8.666;2023-07-31T12:20:45;8.77;;;3.33;;
5553;SDS011;2800;49.528;8.666;2023-07-31T12:23:18;8.77;;;3.80;;
5553;SDS011;2800;49.528;8.666;2023-07-31T12:26:04;9.87;;;3.90;;
5553;SDS011;2800;49.528;8.666;2023-07-31T12:28:34;11.17;;;3.90;;
5553;SDS011;2800;49.528;8.666;2023-07-31T12:31:10;20.27;;;4.30;;
5553;SDS011;2800;49.528;8.666;2023-07-31T12:33:38;8.77;;;3.77;;
5553;SDS011;2800;49.528;8.666;2023-07-31T12:36:08;9.30;;;3.90;;
5553;SDS011;2800;49.528;8.666;2023-07-31T12:38:35;8.13;;;3.90;;
5553;SDS011;2800;49.528;8.666;2023-07-31T12:41:00;9.10;;;4.10;;
5553;SDS011;2800;49.528;8.666;2023-07-31T12:43:26;12.07;;;4.47;;
5553;SDS011;2800;49.528;8.666;2023-07-31T12:45:53;8.10;;;3.70;;
5553;SDS011;2800;49.528;8.666;2023-07-31T12:48:20;10.93;;;4.00;;
5553;SDS011;2800;49.528;8.666;2023-07-31T12:50:45;8.27;;;3.80;;
5553;SDS011;2800;49.528;8.666;2023-07-31T12:53:11;10.70;;;4.30;;
5553;SDS011;2800;49.528;8.666;2023-07-31T12:55:36;9.60;;;3.60;;
5553;SDS011;2800;49.528;8.666;2023-07-31T12:58:02;9.00;;;3.73;;
5553;SDS011;2800;49.528;8.666;2023-07-31T13:00:28;10.10;;;4.37;;
5553;SDS011;2800;49.528;8.666;2023-07-31T13:02:53;7.63;;;3.90;;
5553;SDS011;2800;49.528;8.666;2023-07-31T13:05:19;9.90;;;3.73;;
5553;SDS011;2800;49.528;8.666;2023-07-31T13:07:45;12.37;;;4.00;;
5553;SDS011;2800;49.528;8.666;2023-07-31T13:10:11;8.00;;;3.90;;
5553;SDS011;2800;49.528;8.666;2023-07-31T13:12:37;8.00;;;3.87;;
5553;SDS011;2800;49.528;8.666;2023-07-31T13:15:03;8.07;;;3.93;;
5553;SDS011;2800;49.528;8.666;2023-07-31T13:17:30;11.77;;;4.00;;
5553;SDS011;2800;49.528;8.666;2023-07-31T13:19:56;7.67;;;3.80;;
5553;SDS011;2800;49.528;8.666;2023-07-31T13:22:21;9.20;;;3.70;;
5553;SDS011;2800;49.528;8.666;2023-07-31T13:24:47;9.37;;;3.83;;
5553;SDS011;2800;49.528;8.666;2023-07-31T13:27:13;8.70;;;3.97;;
5553;SDS011;2800;49.528;8.666;2023-07-31T13:29:39;11.40;;;4.00;;
5553;SDS011;2800;49.528;8.666;2023-07-31T13:32:04;8.87;;;4.07;;
5553;SDS011;2800;49.528;8.666;2023-07-31T13:34:30;9.67;;;3.70;;
5553;SDS011;2800;49.528;8.666;2023-07-31T13:36:55;14.80;;;3.73;;
5553;SDS011;2800;49.528;8.666;2023-07-31T13:39:21;8.70;;;3.80;;
5553;SDS011;2800;49.528;8.666;2023-07-31T13:41:47;12.40;;;4.00;;
5553;SDS011;2800;49.528;8.666;2023-07-31T13:44:12;7.07;;;3.60;;
5553;SDS011;2800;49.528;8.666;2023-07-31T13:46:38;8.90;;;3.67;;
5553;SDS011;2800;49.528;8.666;2023-07-31T13:49:03;8.30;;;3.60;;
5553;SDS011;2800;49.528;8.666;2023-07-31T13:51:29;10.23;;;3.77;;
5553;SDS011;2800;49.528;8.666;2023-07-31T13:53:54;9.53;;;3.90;;
5553;SDS011;2800;49.528;8.666;2023-07-31T13:56:20;9.77;;;3.93;;
5553;SDS011;2800;49.528;8.666;2023-07-31T13:58:45;10.13;;;3.87;;
5553;SDS011;2800;49.528;8.666;2023-07-31T14:01:11;6.70;;;3.80;;
5553;SDS011;2800;49.528;8.666;2023-07-31T14:03:36;9.10;;;4.00;;
5553;SDS011;2800;49.528;8.666;2023-07-31T14:06:02;10.73;;;3.80;;
5553;SDS011;2800;49.528;8.666;2023-07-31T14:08:28;8.20;;;3.50;;
5553;SDS011;2800;49.528;8.666;2023-07-31T14:10:54;9.20;;;4.00;;
5553;SDS011;2800;49.528;8.666;2023-07-31T14:13:20;11.60;;;4.10;;
5553;SDS011;2800;49.528;8.666;2023-07-31T14:15:45;9.53;;;4.10;;
5553;SDS011;2800;49.528;8.666;2023-07-31T14:18:11;11.10;;;4.00;;
5553;SDS011;2800;49.528;8.666;2023-07-31T14:20:36;13.80;;;4.00;;
5553;SDS011;2800;49.528;8.666;2023-07-31T14:23:02;14.77;;;4.43;;
5553;SDS011;2800;49.528;8.666;2023-07-31T14:25:28;10.17;;;4.10;;
5553;SDS011;2800;49.528;8.666;2023-07-31T14:27:53;9.13;;;3.73;;
5553;SDS011;2800;49.528;8.666;2023-07-31T14:30:19;17.20;;;4.27;;
5553;SDS011;2800;49.528;8.666;2023-07-31T14:32:45;11.43;;;4.33;;
5553;SDS011;2800;49.528;8.666;2023-07-31T14:35:11;12.93;;;4.30;;
5553;SDS011;2800;49.528;8.666;2023-07-31T14:37:37;11.27;;;4.40;;
5553;SDS011;2800;49.528;8.666;2023-07-31T14:40:07;10.33;;;4.33;;
5553;SDS011;2800;49.528;8.666;2023-07-31T14:42:34;11.47;;;4.00;;
5553;SDS011;2800;49.528;8.666;2023-07-31T14:45:00;11.80;;;4.40;;
5553;SDS011;2800;49.528;8.666;2023-07-31T14:47:26;10.60;;;4.13;;
5553;SDS011;2800;49.528;8.666;2023-07-31T14:49:51;10.33;;;3.77;;
5553;SDS011;2800;49.528;8.666;2023-07-31T14:52:17;9.97;;;4.33;;
5553;SDS011;2800;49.528;8.666;2023-07-31T14:54:42;9.93;;;4.23;;
5553;SDS011;2800;49.528;8.666;2023-07-31T14:57:08;9.67;;;3.90;;
5553;SDS011;2800;49.528;8.666;2023-07-31T14:59:34;10.93;;;4.30;;
5553;SDS011;2800;49.528;8.666;2023-07-31T15:01:59;11.83;;;4.03;;
5553;SDS011;2800;49.528;8.666;2023-07-31T15:04:25;13.90;;;4.60;;
5553;SDS011;2800;49.528;8.666;2023-07-31T15:06:51;12.17;;;4.47;;
5553;SDS011;2800;49.528;8.666;2023-07-31T15:09:17;8.67;;;4.33;;
5553;SDS011;2800;49.528;8.666;2023-07-31T15:11:43;9.83;;;4.00;;
5553;SDS011;2800;49.528;8.666;2023-07-31T15:14:08;14.13;;;4.70;;
5553;SDS011;2800;49.528;8.666;2023-07-31T15:16:34;10.13;;;3.97;;
5553;SDS011;2800;49.528;8.666;2023-07-31T15:19:00;8.83;;;3.97;;